Time;durP1;ratioP1;P1;durP2;ratioP2;P2;SDS_P1;SDS_P2;PMS_P1;PMS_P2;Temp;Humidity;BMP_temperature;BMP_pressure;BME280_temperature;BME280_humidity;BME280_pressure;Samples;Min_cycle;Max_cycle;Signal;HPM_P1;HPM_P2
2021/04/01 00:02:24;;;;;;;11.07;5.30;;;;;;;;;;5015738;28;20386;-80
2021/04/01 00:05:10;;;;;;;10.80;5.63;;;;;;;;;;5026928;28;20029;-80
2021/04/01 00:07:55;;;;;;;10.82;4.47;;;;;;;;;;5020309;28;20503;-81
2021/04/01 00:10:42;;;;;;;15.27;5.25;;;;;;;;;;5025727;28;20462;-79
2021/04/01 00:13:27;;;;;;;11.75;5.07;;;;;;;;;;5023892;28;20021;-80
2021/04/01 00:16:13;;;;;;;11.10;5.53;;;;;;;;;;5027485;28;20159;-81
2021/04/01 00:18:58;;;;;;;7.43;4.40;;;;;;;;;;5021818;28;20047;-81
2021/04/01 00:21:43;;;;;;;19.45;5.45;;;;;;;;;;5025375;28;20460;-82
2021/04/01 00:24:29;;;;;;;9.52;4.88;;;;;;;;;;5020644;28;20400;-81
2021/04/01 00:27:14;;;;;;;14.57;6.07;;;;;;;;;;5022692;28;20028;-81
2021/04/01 00:29:59;;;;;;;11.65;5.82;;;;;;;;;;5026211;28;20029;-82
2021/04/01 00:32:46;;;;;;;12.68;5.93;;;;;;;;;;5023991;28;20017;-82
2021/04/01 00:35:32;;;;;;;11.75;5.32;;;;;;;;;;5026878;28;20105;-82
2021/04/01 00:38:17;;;;;;;16.75;5.47;;;;;;;;;;5025123;28;20041;-81
2021/04/01 00:41:02;;;;;;;14.43;5.75;;;;;;;;;;5020268;28;20079;-81
2021/04/01 00:43:48;;;;;;;11.80;5.35;;;;;;;;;;5025456;28;20535;-81
2021/04/01 00:46:33;;;;;;;15.77;5.35;;;;;;;;;;5025163;28;20148;-82
2021/04/01 00:49:18;;;;;;;11.25;5.40;;;;;;;;;;5016849;28;20049;-82
2021/04/01 00:52:05;;;;;;;9.48;4.97;;;;;;;;;;5024842;28;20036;-81
2021/04/01 00:54:50;;;;;;;12.15;5.47;;;;;;;;;;5015456;28;20029;-81
2021/04/01 00:57:36;;;;;;;12.75;5.57;;;;;;;;;;5022187;28;20511;-81
2021/04/01 01:00:26;;;;;;;10.05;5.28;;;;;;;;;;5023667;28;20025;-81
2021/04/01 01:03:11;;;;;;;10.57;5.38;;;;;;;;;;5008879;28;20029;-81
2021/04/01 01:05:57;;;;;;;13.68;5.75;;;;;;;;;;5024524;28;20092;-81
2021/04/01 01:08:42;;;;;;;11.27;5.53;;;;;;;;;;5019031;28;20435;-81
2021/04/01 01:11:29;;;;;;;14.70;6.03;;;;;;;;;;5026248;28;20026;-80
2021/04/01 01:14:14;;;;;;;15.18;5.68;;;;;;;;;;5019304;28;20050;-81
2021/04/01 01:16:59;;;;;;;15.18;5.32;;;;;;;;;;5023689;28;20041;-81
2021/04/01 01:19:52;;;;;;;9.98;5.10;;;;;;;;;;5023813;28;20110;-81
2021/04/01 01:22:37;;;;;;;12.85;6.13;;;;;;;;;;5025460;28;20155;-81
2021/04/01 01:25:23;;;;;;;9.82;5.53;;;;;;;;;;5021379;28;20118;-81
2021/04/01 01:28:08;;;;;;;18.13;6.03;;;;;;;;;;5020614;28;20033;-81
2021/04/01 01:30:53;;;;;;;9.50;5.60;;;;;;;;;;5022714;28;20119;-81
2021/04/01 01:33:41;;;;;;;13.82;6.50;;;;;;;;;;5022715;28;20195;-81
2021/04/01 01:36:29;;;;;;;14.27;6.15;;;;;;;;;;5019502;28;20018;-81
2021/04/01 01:39:15;;;;;;;13.80;6.90;;;;;;;;;;5029501;28;20033;-80
2021/04/01 01:42:00;;;;;;;10.45;4.90;;;;;;;;;;5027593;28;20523;-80
2021/04/01 01:44:45;;;;;;;13.82;5.75;;;;;;;;;;5025098;28;20072;-81
2021/04/01 01:47:30;;;;;;;13.50;5.57;;;;;;;;;;5024779;28;20084;-81
2021/04/01 01:50:17;;;;;;;12.77;6.20;;;;;;;;;;5021988;28;20180;-81
2021/04/01 01:53:03;;;;;;;11.30;5.85;;;;;;;;;;5025133;28;20075;-81
2021/04/01 01:55:48;;;;;;;9.60;5.22;;;;;;;;;;5021386;28;21973;-81
2021/04/01 01:58:34;;;;;;;14.88;5.32;;;;;;;;;;5022988;28;20041;-81
2021/04/01 02:01:21;;;;;;;14.43;5.60;;;;;;;;;;5019746;28;20036;-81
2021/04/01 02:04:06;;;;;;;11.00;5.32;;;;;;;;;;5025432;28;20013;-81
2021/04/01 02:06:52;;;;;;;10.73;5.75;;;;;;;;;;5022349;28;20476;-80
2021/04/01 02:09:37;;;;;;;11.30;6.25;;;;;;;;;;5024315;28;20067;-80
2021/04/01 02:12:22;;;;;;;9.68;4.93;;;;;;;;;;5020438;28;20017;-80
2021/04/01 02:15:11;;;;;;;11.07;5.50;;;;;;;;;;5024938;28;20045;-80
2021/04/01 02:18:10;;;;;;;15.85;5.82;;;;;;;;;;5022252;28;20415;-80
2021/04/01 02:21:00;;;;;;;12.20;5.90;;;;;;;;;;5025883;28;20060;-80
2021/04/01 02:23:45;;;;;;;17.67;6.28;;;;;;;;;;5021817;28;20013;-80
2021/04/01 02:26:30;;;;;;;10.60;5.32;;;;;;;;;;5020717;28;20025;-80
2021/04/01 02:29:16;;;;;;;14.35;5.90;;;;;;;;;;5024063;28;20036;-80
2021/04/01 02:32:01;;;;;;;11.88;4.90;;;;;;;;;;5022637;28;20033;-80
2021/04/01 02:34:47;;;;;;;10.25;5.97;;;;;;;;;;5023661;28;20132;-81
2021/04/01 02:37:32;;;;;;;13.90;5.32;;;;;;;;;;5019670;28;20777;-81
2021/04/01 02:40:17;;;;;;;10.40;4.97;;;;;;;;;;5025207;28;20021;-80
2021/04/01 02:43:03;;;;;;;11.80;5.97;;;;;;;;;;5017859;28;20029;-80
2021/04/01 02:45:48;;;;;;;16.65;6.55;;;;;;;;;;5024221;28;20029;-82
2021/04/01 02:48:34;;;;;;;9.27;5.40;;;;;;;;;;5030113;28;20495;-81
2021/04/01 02:51:19;;;;;;;12.95;5.85;;;;;;;;;;5020369;28;20040;-81
2021/04/01 02:54:04;;;;;;;13.35;5.30;;;;;;;;;;5020610;28;20083;-80
2021/04/01 02:56:49;;;;;;;10.57;6.05;;;;;;;;;;5023240;28;20026;-80
2021/04/01 02:59:35;;;;;;;13.35;5.95;;;;;;;;;;5017008;28;20125;-80
2021/04/01 03:02:20;;;;;;;14.10;6.65;;;;;;;;;;5022307;28;20052;-80
2021/04/01 03:05:07;;;;;;;13.73;6.55;;;;;;;;;;5022460;28;20083;-80
2021/04/01 03:07:52;;;;;;;16.52;6.57;;;;;;;;;;5025231;28;20029;-80
2021/04/01 03:10:38;;;;;;;14.85;6.25;;;;;;;;;;5022012;28;20231;-81
2021/04/01 03:13:23;;;;;;;10.32;5.78;;;;;;;;;;5022716;28;20250;-81
2021/04/01 03:16:08;;;;;;;12.05;6.82;;;;;;;;;;5023679;28;20547;-81
2021/04/01 03:18:54;;;;;;;12.68;6.25;;;;;;;;;;5021026;28;20029;-81
2021/04/01 03:21:39;;;;;;;12.95;6.07;;;;;;;;;;5023641;28;20053;-81
2021/04/01 03:24:24;;;;;;;17.27;6.63;;;;;;;;;;5020609;28;20025;-81
2021/04/01 03:27:09;;;;;;;17.75;6.57;;;;;;;;;;5021322;28;20025;-81
2021/04/01 03:30:08;;;;;;;12.43;5.65;;;;;;;;;;5021949;28;20060;-81
2021/04/01 03:32:53;;;;;;;15.48;6.78;;;;;;;;;;5024350;28;20053;-81
2021/04/01 03:35:39;;;;;;;12.68;5.95;;;;;;;;;;5021579;28;20491;-81
2021/04/01 03:38:25;;;;;;;12.13;6.03;;;;;;;;;;5023849;28;20018;-81
2021/04/01 03:41:10;;;;;;;14.25;6.50;;;;;;;;;;5024388;28;20033;-82
2021/04/01 03:43:56;;;;;;;15.10;5.65;;;;;;;;;;5028199;28;20083;-81
2021/04/01 03:46:41;;;;;;;12.07;5.32;;;;;;;;;;5021589;28;20053;-81
2021/04/01 03:49:26;;;;;;;13.00;5.55;;;;;;;;;;5021572;28;20041;-81
2021/04/01 03:52:11;;;;;;;13.18;6.82;;;;;;;;;;5024445;28;20029;-81
2021/04/01 03:55:01;;;;;;;15.55;5.95;;;;;;;;;;5023595;28;20041;-80
2021/04/01 03:57:48;;;;;;;15.15;5.55;;;;;;;;;;5023391;28;20020;-80
2021/04/01 04:00:36;;;;;;;15.35;5.85;;;;;;;;;;5022776;28;20049;-80
2021/04/01 04:03:42;;;;;;;9.82;5.85;;;;;;;;;;5027310;28;20025;-80
2021/04/01 04:12:59;;;;;;;15.38;6.05;;;;;;;;;;5017524;28;20420;-80
2021/04/01 04:15:44;;;;;;;14.25;6.53;;;;;;;;;;5026638;28;20129;-80
2021/04/01 04:18:29;;;;;;;10.75;5.75;;;;;;;;;;5022140;28;20017;-79
2021/04/01 04:21:16;;;;;;;14.35;6.30;;;;;;;;;;5022973;28;20090;-80
2021/04/01 04:24:03;;;;;;;11.23;5.93;;;;;;;;;;5041274;28;20472;-79
2021/04/01 04:26:50;;;;;;;14.32;6.35;;;;;;;;;;5024745;28;20108;-80
2021/04/01 04:29:35;;;;;;;13.75;6.93;;;;;;;;;;5009155;28;20037;-81
2021/04/01 04:32:20;;;;;;;19.00;7.00;;;;;;;;;;5024102;28;20376;-83
2021/04/01 04:35:06;;;;;;;14.30;6.30;;;;;;;;;;5026353;28;20021;-82
2021/04/01 04:37:52;;;;;;;13.68;6.57;;;;;;;;;;5022683;28;20413;-81
2021/04/01 04:40:37;;;;;;;15.30;6.30;;;;;;;;;;5021515;28;20025;-81
2021/04/01 04:43:26;;;;;;;13.38;6.47;;;;;;;;;;5022115;28;20017;-81
2021/04/01 04:46:12;;;;;;;11.18;6.93;;;;;;;;;;5025945;28;20058;-80
2021/04/01 04:48:57;;;;;;;14.27;6.70;;;;;;;;;;5023653;28;20045;-81
2021/04/01 04:51:43;;;;;;;15.43;6.55;;;;;;;;;;5026406;28;20087;-80
2021/04/01 04:54:31;;;;;;;14.10;6.70;;;;;;;;;;5021559;28;20538;-80
2021/04/01 05:06:04;;;;;;;15.80;6.95;;;;;;;;;;5022349;28;20141;-80
2021/04/01 05:08:52;;;;;;;12.88;6.07;;;;;;;;;;5021210;28;20693;-82
2021/04/01 05:11:37;;;;;;;12.90;6.65;;;;;;;;;;5023163;28;20029;-83
2021/04/01 05:14:26;;;;;;;15.98;6.50;;;;;;;;;;5021826;28;20147;-82
2021/04/01 05:17:14;;;;;;;19.10;6.70;;;;;;;;;;5012981;28;20095;-82
2021/04/01 05:20:03;;;;;;;15.27;6.32;;;;;;;;;;5024254;28;20056;-81
2021/04/01 05:22:54;;;;;;;15.60;6.97;;;;;;;;;;5025338;28;20037;-80
2021/04/01 05:25:39;;;;;;;15.85;6.82;;;;;;;;;;5030144;28;20029;-90
2021/04/01 05:28:35;;;;;;;13.82;6.63;;;;;;;;;;5044396;28;20034;-89
2021/04/01 05:31:22;;;;;;;12.73;6.78;;;;;;;;;;5043075;28;20158;-89
2021/04/01 05:34:08;;;;;;;15.85;7.40;;;;;;;;;;5027282;28;20021;-89
2021/04/01 05:36:54;;;;;;;13.35;6.95;;;;;;;;;;5029528;28;20029;-89
2021/04/01 05:39:40;;;;;;;16.02;7.78;;;;;;;;;;5025053;28;20068;-86
2021/04/01 05:42:29;;;;;;;21.83;7.65;;;;;;;;;;5028311;28;20017;-83
2021/04/01 05:48:10;;;;;;;16.20;7.60;;;;;;;;;;5025673;28;20691;-84
2021/04/01 05:57:23;;;;;;;18.23;6.90;;;;;;;;;;5020088;28;20036;-80
2021/04/01 06:09:20;;;;;;;15.95;6.72;;;;;;;;;;5030584;28;20484;-82
2021/04/01 06:12:06;;;;;;;13.85;6.82;;;;;;;;;;5022596;28;20343;-83
2021/04/01 06:15:09;;;;;;;12.75;7.20;;;;;;;;;;5019817;28;20052;-83
2021/04/01 06:18:00;;;;;;;13.77;6.53;;;;;;;;;;5012801;28;20108;-82
2021/04/01 06:20:47;;;;;;;16.80;7.18;;;;;;;;;;5024299;28;20516;-82
2021/04/01 06:23:32;;;;;;;15.02;7.45;;;;;;;;;;5019875;28;20021;-82
2021/04/01 06:26:19;;;;;;;15.38;6.88;;;;;;;;;;5014086;28;20025;-82
2021/04/01 06:29:07;;;;;;;13.88;6.15;;;;;;;;;;5013649;28;20388;-83
2021/04/01 06:32:00;;;;;;;15.40;6.97;;;;;;;;;;5007489;28;20791;-81
2021/04/01 06:34:46;;;;;;;20.10;7.55;;;;;;;;;;5019904;28;20228;-81
2021/04/01 06:40:54;;;;;;;15.80;7.28;;;;;;;;;;5057004;28;20744;-82
2021/04/01 06:43:59;;;;;;;23.10;7.00;;;;;;;;;;5022806;28;20667;-82
2021/04/01 06:46:46;;;;;;;17.30;6.70;;;;;;;;;;5009038;28;20131;-82
2021/04/01 06:49:53;;;;;;;15.20;7.25;;;;;;;;;;5023478;28;20375;-83
2021/04/01 06:52:42;;;;;;;18.00;7.38;;;;;;;;;;5021985;28;20033;-83
2021/04/01 06:55:33;;;;;;;20.17;9.10;;;;;;;;;;5022788;28;20025;-83
2021/04/01 07:01:37;;;;;;;23.98;7.55;;;;;;;;;;5022312;28;20037;-82
2021/04/01 07:04:29;;;;;;;16.73;7.03;;;;;;;;;;5020242;28;20052;-83
2021/04/01 07:07:18;;;;;;;16.92;7.45;;;;;;;;;;5020730;28;20029;-83
2021/04/01 07:10:41;;;;;;;17.17;6.85;;;;;;;;;;5022269;28;20028;-83
2021/04/01 07:13:17;;;;;;;18.58;8.38;;;;;;;;;;5020539;28;20026;-83
2021/04/01 07:16:11;;;;;;;22.90;8.23;;;;;;;;;;5026480;28;20069;-82
2021/04/01 07:46:33;;;;;;;19.60;6.65;;;;;;;;;;5036762;28;20026;-83
2021/04/01 07:49:21;;;;;;;21.38;9.38;;;;;;;;;;5040466;28;20026;-82
2021/04/01 07:52:08;;;;;;;21.27;6.45;;;;;;;;;;5027940;28;20431;-82
2021/04/01 07:55:03;;;;;;;19.17;6.10;;;;;;;;;;5032243;28;20452;-82
2021/04/01 08:03:58;;;;;;;21.48;9.23;;;;;;;;;;5027981;28;20040;-83
2021/04/01 08:06:44;;;;;;;25.73;10.38;;;;;;;;;;5020691;28;20037;-82
2021/04/01 08:09:30;;;;;;;18.23;8.75;;;;;;;;;;5026891;28;20369;-83
2021/04/01 08:12:15;;;;;;;24.70;9.50;;;;;;;;;;5022785;28;20474;-83
2021/04/01 08:15:00;;;;;;;17.73;8.52;;;;;;;;;;5025463;28;20049;-83
2021/04/01 08:17:54;;;;;;;28.80;9.35;;;;;;;;;;5037934;28;20029;-81
2021/04/01 08:20:41;;;;;;;28.50;9.95;;;;;;;;;;5035863;28;20056;-80
2021/04/01 08:24:01;;;;;;;18.30;9.95;;;;;;;;;;5025806;28;20048;-81
2021/04/01 08:27:06;;;;;;;19.10;9.07;;;;;;;;;;5013492;28;20092;-82
2021/04/01 08:36:00;;;;;;;18.30;8.40;;;;;;;;;;5023356;28;20025;-82
2021/04/01 08:38:45;;;;;;;22.05;8.75;;;;;;;;;;5021056;28;20022;-82
2021/04/01 08:41:31;;;;;;;19.65;8.55;;;;;;;;;;5019133;28;20100;-82
2021/04/01 08:44:35;;;;;;;19.00;9.30;;;;;;;;;;5025515;28;20494;-83
2021/04/01 08:47:41;;;;;;;18.10;9.45;;;;;;;;;;5018411;28;20075;-83
2021/04/01 08:50:35;;;;;;;21.73;9.32;;;;;;;;;;5021703;28;20037;-83
2021/04/01 08:53:32;;;;;;;17.30;9.18;;;;;;;;;;5019512;28;20068;-84
2021/04/01 08:56:29;;;;;;;27.55;8.60;;;;;;;;;;5024529;28;20021;-83
2021/04/01 08:59:29;;;;;;;21.17;8.73;;;;;;;;;;5012517;28;20167;-83
2021/04/01 09:02:18;;;;;;;23.83;9.20;;;;;;;;;;5020736;28;20115;-82
2021/04/01 09:05:05;;;;;;;23.02;9.32;;;;;;;;;;5024679;28;20033;-82
2021/04/01 09:08:02;;;;;;;21.77;8.35;;;;;;;;;;5019856;28;20025;-82
2021/04/01 09:10:53;;;;;;;18.05;8.15;;;;;;;;;;5025987;28;20056;-82
2021/04/01 09:13:40;;;;;;;23.63;8.35;;;;;;;;;;5023253;28;20037;-83
2021/04/01 09:16:30;;;;;;;20.10;8.07;;;;;;;;;;5022306;28;20065;-83
2021/04/01 09:19:25;;;;;;;17.25;8.32;;;;;;;;;;5014682;28;20120;-83
2021/04/01 09:22:17;;;;;;;17.00;7.00;;;;;;;;;;5025855;28;20371;-83
2021/04/01 09:25:07;;;;;;;19.40;11.38;;;;;;;;;;5020482;28;20033;-83
2021/04/01 09:27:53;;;;;;;21.73;12.75;;;;;;;;;;5020065;28;20017;-81
2021/04/01 09:30:39;;;;;;;14.68;7.22;;;;;;;;;;5019470;28;20120;-83
2021/04/01 09:33:25;;;;;;;21.75;7.63;;;;;;;;;;5023128;28;20064;-83
2021/04/01 09:36:11;;;;;;;13.90;6.38;;;;;;;;;;5021628;28;20112;-83
2021/04/01 09:39:07;;;;;;;16.60;6.20;;;;;;;;;;5020120;28;20032;-83
2021/04/01 09:42:01;;;;;;;14.02;6.07;;;;;;;;;;5019375;28;20108;-83
2021/04/01 09:44:58;;;;;;;16.15;5.90;;;;;;;;;;5021411;28;20487;-82
2021/04/01 09:47:44;;;;;;;11.52;5.82;;;;;;;;;;5031059;28;20025;-83
2021/04/01 09:50:34;;;;;;;20.60;7.22;;;;;;;;;;5027172;28;20025;-83
2021/04/01 09:53:20;;;;;;;24.27;7.05;;;;;;;;;;5025641;28;20480;-84
2021/04/01 09:56:06;;;;;;;17.42;6.57;;;;;;;;;;5021073;28;20022;-85
2021/04/01 09:58:52;;;;;;;17.10;6.45;;;;;;;;;;5022488;28;20250;-85
2021/04/01 10:01:39;;;;;;;12.75;6.45;;;;;;;;;;5024466;28;20025;-86
2021/04/01 10:04:26;;;;;;;14.95;6.45;;;;;;;;;;5022611;28;20501;-84
2021/04/01 10:07:13;;;;;;;20.40;10.70;;;;;;;;;;5006815;28;20102;-84
2021/04/01 10:09:59;;;;;;;12.75;9.48;;;;;;;;;;5020068;28;20025;-82
2021/04/01 10:12:44;;;;;;;14.70;7.63;;;;;;;;;;5029536;28;20022;-83
2021/04/01 10:15:30;;;;;;;20.75;7.88;;;;;;;;;;5029057;28;20053;-83
2021/04/01 10:18:28;;;;;;;11.63;7.03;;;;;;;;;;5033629;28;20085;-83
2021/04/01 10:21:13;;;;;;;;;;;;;;;;;;5024411;28;20033;-84
2021/04/01 10:24:24;;;;;;;16.88;6.57;;;;;;;;;;5025951;28;19935;-83
2021/04/01 10:27:22;;;;;;;21.55;7.65;;;;;;;;;;5019044;28;20444;-84
2021/04/01 10:30:11;;;;;;;;;;;;;;;;;;5021483;28;20500;-83
2021/04/01 10:33:15;;;;;;;20.35;6.47;;;;;;;;;;5033659;28;19909;-85
2021/04/01 10:36:05;;;;;;;16.48;6.60;;;;;;;;;;5021612;28;20083;-85
2021/04/01 10:42:09;;;;;;;14.60;5.45;;;;;;;;;;5018566;28;20190;-85
2021/04/01 10:45:02;;;;;;;13.25;5.50;;;;;;;;;;5023922;28;20494;-85
2021/04/01 10:47:57;;;;;;;8.52;4.78;;;;;;;;;;5022876;28;20738;-85
2021/04/01 10:50:42;;;;;;;12.95;4.70;;;;;;;;;;5032538;28;20116;-86
2021/04/01 10:53:28;;;;;;;13.02;4.95;;;;;;;;;;5027607;28;20476;-85
2021/04/01 10:56:14;;;;;;;10.98;4.50;;;;;;;;;;5028886;28;20036;-88
2021/04/01 10:59:00;;;;;;;10.82;4.63;;;;;;;;;;5028536;28;20084;-85
2021/04/01 11:01:47;;;;;;;8.80;3.80;;;;;;;;;;5024190;28;20112;-84
2021/04/01 11:04:33;;;;;;;11.77;4.13;;;;;;;;;;5037329;28;20520;-84
2021/04/01 11:07:19;;;;;;;9.50;4.07;;;;;;;;;;5023193;28;20718;-84
2021/04/01 11:10:05;;;;;;;14.50;4.45;;;;;;;;;;5026437;28;20376;-84
2021/04/01 11:12:56;;;;;;;7.78;4.32;;;;;;;;;;5024489;28;20116;-84
2021/04/01 11:15:42;;;;;;;8.68;3.72;;;;;;;;;;5023916;28;20057;-85
2021/04/01 11:18:28;;;;;;;12.55;4.53;;;;;;;;;;5023713;28;20018;-83
2021/04/01 11:21:14;;;;;;;11.48;3.75;;;;;;;;;;5024927;28;20379;-84
2021/04/01 11:24:00;;;;;;;8.68;3.22;;;;;;;;;;5024723;28;20479;-84
2021/04/01 11:26:45;;;;;;;9.43;3.55;;;;;;;;;;5024082;28;20520;-85
2021/04/01 11:29:31;;;;;;;10.48;3.60;;;;;;;;;;5023803;28;20033;-84
2021/04/01 11:32:19;;;;;;;10.00;4.05;;;;;;;;;;5027853;28;20029;-84
2021/04/01 11:35:04;;;;;;;7.45;3.75;;;;;;;;;;5025538;28;20416;-85
2021/04/01 11:37:56;;;;;;;8.82;3.75;;;;;;;;;;5027969;28;20075;-85
2021/04/01 11:40:51;;;;;;;9.35;3.47;;;;;;;;;;5027263;28;20407;-84
2021/04/01 11:43:37;;;;;;;11.88;4.18;;;;;;;;;;5023243;28;20539;-84
2021/04/01 11:46:23;;;;;;;12.52;3.75;;;;;;;;;;5025578;28;20079;-84
2021/04/01 11:49:08;;;;;;;10.90;3.90;;;;;;;;;;5006914;28;20507;-84
2021/04/01 11:51:54;;;;;;;10.35;4.00;;;;;;;;;;5027689;28;20056;-85
2021/04/01 11:54:39;;;;;;;7.95;4.32;;;;;;;;;;5020586;28;20052;-85
2021/04/01 11:57:29;;;;;;;9.57;3.70;;;;;;;;;;5025365;28;20476;-83
2021/04/01 12:00:28;;;;;;;7.20;2.90;;;;;;;;;;5016158;28;20029;-84
2021/04/01 12:03:21;;;;;;;10.23;3.28;;;;;;;;;;5033223;28;20119;-84
2021/04/01 12:06:07;;;;;;;8.02;2.90;;;;;;;;;;5024727;28;20028;-84
2021/04/01 12:08:53;;;;;;;8.43;3.15;;;;;;;;;;5027614;28;20643;-83
2021/04/01 12:11:39;;;;;;;9.70;3.50;;;;;;;;;;5022533;28;20029;-85
2021/04/01 12:14:32;;;;;;;9.13;3.42;;;;;;;;;;5027009;28;20041;-82
2021/04/01 12:17:17;;;;;;;9.15;3.20;;;;;;;;;;5026576;28;20499;-84
2021/04/01 12:20:08;;;;;;;28.35;23.02;;;;;;;;;;5025215;28;20025;-84
2021/04/01 12:22:55;;;;;;;11.90;6.30;;;;;;;;;;5024336;28;20089;-84
2021/04/01 12:25:40;;;;;;;5.95;3.28;;;;;;;;;;5025236;28;20033;-84
2021/04/01 12:28:28;;;;;;;7.80;3.22;;;;;;;;;;5027411;28;20087;-84
2021/04/01 12:31:15;;;;;;;7.25;3.35;;;;;;;;;;5023637;28;20117;-85
2021/04/01 12:34:01;;;;;;;5.53;3.35;;;;;;;;;;5027829;28;20793;-84
2021/04/01 12:36:46;;;;;;;7.38;2.95;;;;;;;;;;5021094;28;20056;-84
2021/04/01 12:39:32;;;;;;;8.57;3.33;;;;;;;;;;5025525;28;20026;-83
2021/04/01 12:42:18;;;;;;;8.23;3.00;;;;;;;;;;5022586;28;20392;-84
2021/04/01 12:45:12;;;;;;;8.15;3.08;;;;;;;;;;5030716;28;20025;-83
2021/04/01 12:48:11;;;;;;;9.98;6.05;;;;;;;;;;5023117;28;20017;-83
2021/04/01 12:50:59;;;;;;;5.85;2.88;;;;;;;;;;5022085;28;20471;-83
2021/04/01 12:53:53;;;;;;;6.13;3.03;;;;;;;;;;5025961;28;20653;-84
2021/04/01 12:56:44;;;;;;;7.70;3.63;;;;;;;;;;5019224;28;20044;-83
2021/04/01 12:59:31;;;;;;;10.88;3.00;;;;;;;;;;5024083;28;20069;-83
2021/04/01 13:02:19;;;;;;;8.80;2.75;;;;;;;;;;5021876;28;20021;-83
2021/04/01 13:05:06;;;;;;;8.27;3.08;;;;;;;;;;5024116;28;20546;-84
2021/04/01 13:08:20;;;;;;;7.90;3.20;;;;;;;;;;5023194;28;20528;-84
2021/04/01 13:11:05;;;;;;;8.02;3.10;;;;;;;;;;5021447;28;20052;-85
2021/04/01 13:13:52;;;;;;;6.57;2.92;;;;;;;;;;5023181;28;20450;-84
2021/04/01 13:16:38;;;;;;;7.68;2.50;;;;;;;;;;5024897;28;20129;-84
2021/04/01 13:19:23;;;;;;;12.57;4.30;;;;;;;;;;5026166;28;20033;-84
2021/04/01 13:25:15;;;;;;;8.40;2.85;;;;;;;;;;5024048;28;20072;-84
2021/04/01 13:28:07;;;;;;;8.40;3.30;;;;;;;;;;5016584;28;20468;-84
2021/04/01 13:30:59;;;;;;;7.75;2.65;;;;;;;;;;5025814;28;20029;-84
2021/04/01 13:33:52;;;;;;;8.52;4.05;;;;;;;;;;5021831;28;20575;-84
2021/04/01 13:36:43;;;;;;;11.60;3.25;;;;;;;;;;5023953;28;20032;-84
2021/04/01 13:39:31;;;;;;;11.10;3.40;;;;;;;;;;5022178;28;20101;-84
2021/04/01 13:42:26;;;;;;;13.55;4.15;;;;;;;;;;5017370;28;21008;-84
2021/04/01 13:45:15;;;;;;;16.05;3.15;;;;;;;;;;5022610;28;20291;-84
2021/04/01 13:48:07;;;;;;;9.90;3.78;;;;;;;;;;5022717;28;20537;-84
2021/04/01 13:51:03;;;;;;;6.43;3.13;;;;;;;;;;5021631;28;20040;-84
2021/04/01 13:56:38;;;;;;;11.40;4.00;;;;;;;;;;5025515;28;20476;-84
2021/04/01 13:59:30;;;;;;;9.48;3.65;;;;;;;;;;5021808;28;20064;-87
2021/04/01 14:11:32;;;;;;;7.93;2.92;;;;;;;;;;5025328;28;20088;-87
2021/04/01 14:14:17;;;;;;;8.00;3.33;;;;;;;;;;5020863;28;20116;-85
2021/04/01 14:17:04;;;;;;;10.77;3.60;;;;;;;;;;5024353;28;20053;-84
2021/04/01 14:19:50;;;;;;;6.78;3.50;;;;;;;;;;5007874;28;20022;-84
2021/04/01 14:22:38;;;;;;;11.23;3.58;;;;;;;;;;5028341;28;20179;-86
2021/04/01 14:25:37;;;;;;;8.80;3.72;;;;;;;;;;5023811;28;20533;-84
2021/04/01 14:28:22;;;;;;;8.50;4.72;;;;;;;;;;5018760;28;20036;-84
2021/04/01 14:31:08;;;;;;;10.73;3.60;;;;;;;;;;5022018;28;20044;-84
2021/04/01 14:33:54;;;;;;;11.60;4.03;;;;;;;;;;5022771;28;20045;-90
2021/04/01 14:36:39;;;;;;;13.18;4.13;;;;;;;;;;5023217;28;20076;-83
2021/04/01 14:39:27;;;;;;;12.30;4.47;;;;;;;;;;5023888;28;20026;-84
2021/04/01 14:42:13;;;;;;;10.25;3.97;;;;;;;;;;5021316;28;20026;-86
2021/04/01 14:44:58;;;;;;;12.93;5.38;;;;;;;;;;5023316;28;20055;-86
2021/04/01 14:47:43;;;;;;;11.52;4.43;;;;;;;;;;5018148;28;20393;-83
2021/04/01 14:50:28;;;;;;;12.93;4.82;;;;;;;;;;5022766;28;20049;-84
2021/04/01 14:53:20;;;;;;;6.90;4.18;;;;;;;;;;5019342;28;20041;-84
2021/04/01 14:56:06;;;;;;;10.00;4.38;;;;;;;;;;5021597;28;20013;-85
2021/04/01 14:58:52;;;;;;;12.27;5.30;;;;;;;;;;5024589;28;20018;-86
2021/04/01 15:01:38;;;;;;;13.70;4.95;;;;;;;;;;5021804;28;20117;-85
2021/04/01 15:04:26;;;;;;;25.13;15.60;;;;;;;;;;5021985;28;20392;-87
2021/04/01 15:07:12;;;;;;;8.15;4.82;;;;;;;;;;5020543;28;20034;-86
2021/04/01 15:10:01;;;;;;;14.88;5.18;;;;;;;;;;5026211;28;20029;-87
2021/04/01 15:12:46;;;;;;;;;;;;;;;;;;5018475;28;20393;-85
2021/04/01 15:15:35;;;;;;;10.23;4.03;;;;;;;;;;5036485;28;19925;-85
2021/04/01 15:18:22;;;;;;;8.45;3.78;;;;;;;;;;5019089;28;20029;-83
2021/04/01 15:21:08;;;;;;;8.30;3.92;;;;;;;;;;5024282;28;20037;-83
2021/04/01 15:23:53;;;;;;;11.48;4.20;;;;;;;;;;5021082;28;20394;-85
2021/04/01 15:26:40;;;;;;;13.00;4.40;;;;;;;;;;5019139;28;20607;-84
2021/04/01 15:29:25;;;;;;;10.85;4.03;;;;;;;;;;5023854;28;20554;-84
2021/04/01 15:32:10;;;;;;;10.30;3.88;;;;;;;;;;5021731;28;20360;-85
2021/04/01 15:34:55;;;;;;;13.70;4.10;;;;;;;;;;5025930;28;20759;-83
2021/04/01 15:37:41;;;;;;;9.75;4.45;;;;;;;;;;5025314;28;20029;-84
2021/04/01 15:40:26;;;;;;;13.25;4.95;;;;;;;;;;5020385;28;20022;-84
2021/04/01 15:43:14;;;;;;;11.73;4.35;;;;;;;;;;5023047;28;20021;-83
2021/04/01 15:45:59;;;;;;;11.18;5.47;;;;;;;;;;5018213;28;20496;-84
2021/04/01 15:48:52;;;;;;;14.02;4.70;;;;;;;;;;5025532;28;20033;-84
2021/04/01 15:51:38;;;;;;;12.10;4.38;;;;;;;;;;5022690;28;20038;-84
2021/04/01 15:54:23;;;;;;;12.18;5.15;;;;;;;;;;5019609;28;20029;-84
2021/04/01 15:57:11;;;;;;;11.27;4.68;;;;;;;;;;5027290;28;20021;-84
2021/04/01 15:59:56;;;;;;;16.17;5.53;;;;;;;;;;5022965;28;20127;-84
2021/04/01 16:02:42;;;;;;;13.02;6.32;;;;;;;;;;5016614;28;20071;-83
2021/04/01 16:05:30;;;;;;;13.80;6.50;;;;;;;;;;5023413;28;20122;-84
2021/04/01 16:08:15;;;;;;;12.70;6.25;;;;;;;;;;5022220;28;20036;-83
2021/04/01 16:11:04;;;;;;;19.17;8.25;;;;;;;;;;5027223;28;20394;-84
2021/04/01 16:13:49;;;;;;;12.40;7.67;;;;;;;;;;5019270;28;20029;-85
2021/04/01 16:16:37;;;;;;;15.88;8.20;;;;;;;;;;5024928;28;20028;-85
2021/04/01 16:19:23;;;;;;;14.25;8.02;;;;;;;;;;5024336;28;20091;-85
2021/04/01 16:22:08;;;;;;;21.23;8.68;;;;;;;;;;5023395;28;20104;-85
2021/04/01 16:24:56;;;;;;;18.67;9.13;;;;;;;;;;5024400;28;20037;-85
2021/04/01 16:27:44;;;;;;;20.13;10.40;;;;;;;;;;5026880;28;20415;-84
2021/04/01 16:30:30;;;;;;;20.17;9.00;;;;;;;;;;5020739;28;20384;-85
2021/04/01 16:33:15;;;;;;;21.83;10.35;;;;;;;;;;5011043;28;20026;-83
2021/04/01 16:36:01;;;;;;;18.88;10.85;;;;;;;;;;5007599;28;20467;-83
2021/04/01 16:38:47;;;;;;;20.83;10.68;;;;;;;;;;5026330;28;20021;-84
2021/04/01 16:41:32;;;;;;;18.40;11.52;;;;;;;;;;5022802;28;20056;-84
2021/04/01 16:44:17;;;;;;;22.45;11.48;;;;;;;;;;5025671;28;20026;-84
2021/04/01 16:47:04;;;;;;;24.63;14.32;;;;;;;;;;5022730;28;20018;-84
2021/04/01 16:49:49;;;;;;;17.05;11.85;;;;;;;;;;5025912;28;20025;-84
2021/04/01 16:52:38;;;;;;;21.88;13.50;;;;;;;;;;5024843;28;20033;-84
2021/04/01 16:55:25;;;;;;;27.25;12.82;;;;;;;;;;5023886;28;20026;-85
2021/04/01 16:58:11;;;;;;;27.58;15.90;;;;;;;;;;5024265;28;20064;-84
2021/04/01 17:00:56;;;;;;;27.42;17.65;;;;;;;;;;5023222;28;20389;-84
2021/04/01 17:03:42;;;;;;;25.42;16.02;;;;;;;;;;5025915;28;20082;-84
2021/04/01 17:06:27;;;;;;;26.50;16.05;;;;;;;;;;5020768;28;20040;-84
2021/04/01 17:09:12;;;;;;;29.30;17.83;;;;;;;;;;5025899;28;20032;-83
2021/04/01 17:11:58;;;;;;;32.40;17.35;;;;;;;;;;5021738;28;20033;-84
2021/04/01 17:14:43;;;;;;;29.30;16.42;;;;;;;;;;5022916;28;20111;-84
2021/04/01 17:17:29;;;;;;;29.80;15.07;;;;;;;;;;5021694;28;20049;-84
2021/04/01 17:20:15;;;;;;;31.40;15.48;;;;;;;;;;5025406;28;20033;-86
2021/04/01 17:23:01;;;;;;;24.77;16.60;;;;;;;;;;5023399;28;20037;-84
2021/04/01 17:25:46;;;;;;;29.90;15.02;;;;;;;;;;5023692;28;20153;-84
2021/04/01 17:28:32;;;;;;;27.15;16.17;;;;;;;;;;5018822;28;20104;-84
2021/04/01 17:31:17;;;;;;;29.20;16.05;;;;;;;;;;5025212;28;20021;-84
2021/04/01 17:34:05;;;;;;;24.55;15.13;;;;;;;;;;5022015;28;20033;-84
2021/04/01 17:36:50;;;;;;;25.38;16.30;;;;;;;;;;5035832;28;20025;-84
2021/04/01 17:39:35;;;;;;;25.10;16.35;;;;;;;;;;5024701;28;20415;-85
2021/04/01 17:42:20;;;;;;;25.50;16.05;;;;;;;;;;5021097;28;20196;-84
2021/04/01 17:45:06;;;;;;;37.92;25.48;;;;;;;;;;5021460;28;20108;-84
2021/04/01 17:47:51;;;;;;;48.00;33.20;;;;;;;;;;5018152;28;20422;-84
2021/04/01 17:50:36;;;;;;;35.63;26.58;;;;;;;;;;5025187;28;20023;-84
2021/04/01 17:53:22;;;;;;;36.97;22.15;;;;;;;;;;5021589;28;20029;-83
2021/04/01 17:56:10;;;;;;;34.10;18.25;;;;;;;;;;5019610;28;20112;-84
2021/04/01 17:58:58;;;;;;;29.27;15.15;;;;;;;;;;5023978;28;20087;-83
2021/04/01 18:01:45;;;;;;;28.48;15.02;;;;;;;;;;5024978;28;20344;-85
2021/04/01 18:25:56;;;;;;;26.23;11.60;;;;;;;;;;5021891;28;20029;-83
2021/04/01 18:28:57;;;;;;;18.88;10.43;;;;;;;;;;5024661;28;20029;-84
2021/04/01 18:31:45;;;;;;;20.05;10.38;;;;;;;;;;5023130;28;20117;-84
2021/04/01 18:37:30;;;;;;;55.08;40.35;;;;;;;;;;5024198;28;20048;-86